Hovedside
METAR-TAF:

METAR-TAF

Lufthavner :

Rarotonga, Cookøyene

breddegrad: 21-12S, lengdegrad: 159-49W, høyde over havet: 7 m

Gjeldene værobservasjon

Denne rapporten ble laget for 42 minutter siden, klokken 11:00 UTC
Vind 11 kt fra Øst-nordøst
Temperatur 23°C
Luftfuktighet 69%
Trykk 1017 hPa
Sikt 10 km eller mer

METAR: NCRG 231100Z AUTO 06011KT 9999 FEW030/// SCT036/// 23/17 Q1017

Tid: 01:42 (11:42 UTC)

Varsel

Denne rapporten ble laget for 6 timer og 34 minutter siden, klokken 05:08 UTC
Varsel gyldig fra 23. klokken 06 UTC til 24. klokken 06 UTC
Vind 7 kt fra Øst
Sikt 10 km eller mer
Få skyer i en høyde av 2000 ft
Spredte skyer i en høyde av 3500 ft

TAF: NCRG 230508Z 2306/2406 08007KT 9999 FEW020 SCT035

Værobservasjoner og værvarsel for over 4000 flyplasser (METAR- og TAF-rapporter).

Tilgjengelige stasjoner er representert av de røde og gule prikkene på kartet.

Hold musepekeren over prikken for å se navnet på stasjonen.

Klikk så for å se værobservasjoner og -varsler.

For å forandre kartet kan du klikke på den grønne knappen med svart kryss for å zoome inn, på den grønne knappen med strek for å zoome ut, eller på de grønne pilene for å se tilstøtende kart.


METAR-TAF: